sensor_id;sensor_type;location;lat;lon;timestamp;P1;durP1;ratioP1;P2;durP2;ratioP2
77726;SDS011;68312;53.502;10.030;2023-06-22T00:00:57;10.35;;;2.90;;
77726;SDS011;68312;53.502;10.030;2023-06-22T00:03:24;4.68;;;2.85;;
77726;SDS011;68312;53.502;10.030;2023-06-22T00:05:51;6.00;;;2.95;;
77726;SDS011;68312;53.502;10.030;2023-06-22T00:08:17;4.88;;;2.88;;
77726;SDS011;68312;53.502;10.030;2023-06-22T00:10:44;5.75;;;2.90;;
77726;SDS011;68312;53.502;10.030;2023-06-22T00:13:11;6.32;;;3.25;;
77726;SDS011;68312;53.502;10.030;2023-06-22T00:15:39;5.88;;;3.20;;
77726;SDS011;68312;53.502;10.030;2023-06-22T00:18:06;5.00;;;3.08;;
77726;SDS011;68312;53.502;10.030;2023-06-22T00:20:34;7.65;;;3.47;;
77726;SDS011;68312;53.502;10.030;2023-06-22T00:22:59;5.13;;;2.90;;
77726;SDS011;68312;53.502;10.030;2023-06-22T00:25:25;5.88;;;3.22;;
77726;SDS011;68312;53.502;10.030;2023-06-22T00:27:51;6.35;;;3.67;;
77726;SDS011;68312;53.502;10.030;2023-06-22T00:30:17;7.18;;;3.60;;
77726;SDS011;68312;53.502;10.030;2023-06-22T00:32:44;4.85;;;3.03;;
77726;SDS011;68312;53.502;10.030;2023-06-22T00:35:11;4.45;;;2.90;;
77726;SDS011;68312;53.502;10.030;2023-06-22T00:37:37;6.07;;;3.00;;
77726;SDS011;68312;53.502;10.030;2023-06-22T00:40:04;5.30;;;3.22;;
77726;SDS011;68312;53.502;10.030;2023-06-22T00:42:31;6.18;;;3.22;;
77726;SDS011;68312;53.502;10.030;2023-06-22T00:44:56;7.03;;;3.20;;
77726;SDS011;68312;53.502;10.030;2023-06-22T00:47:22;5.47;;;3.00;;
77726;SDS011;68312;53.502;10.030;2023-06-22T00:49:48;6.38;;;3.17;;
77726;SDS011;68312;53.502;10.030;2023-06-22T00:52:15;6.68;;;3.47;;
77726;SDS011;68312;53.502;10.030;2023-06-22T00:54:40;4.30;;;2.58;;
77726;SDS011;68312;53.502;10.030;2023-06-22T00:57:06;7.75;;;4.20;;
77726;SDS011;68312;53.502;10.030;2023-06-22T00:59:32;4.80;;;2.50;;
77726;SDS011;68312;53.502;10.030;2023-06-22T01:01:57;6.18;;;3.05;;
77726;SDS011;68312;53.502;10.030;2023-06-22T01:04:24;5.75;;;3.28;;
77726;SDS011;68312;53.502;10.030;2023-06-22T01:10:14;7.70;;;3.22;;
77726;SDS011;68312;53.502;10.030;2023-06-22T01:12:58;4.63;;;2.85;;
77726;SDS011;68312;53.502;10.030;2023-06-22T01:15:40;6.78;;;3.38;;
77726;SDS011;68312;53.502;10.030;2023-06-22T01:18:25;4.30;;;3.10;;
77726;SDS011;68312;53.502;10.030;2023-06-22T01:20:55;5.75;;;3.35;;
77726;SDS011;68312;53.502;10.030;2023-06-22T01:23:27;6.00;;;3.47;;
77726;SDS011;68312;53.502;10.030;2023-06-22T01:26:28;5.63;;;3.38;;
77726;SDS011;68312;53.502;10.030;2023-06-22T01:29:07;4.85;;;2.70;;
77726;SDS011;68312;53.502;10.030;2023-06-22T01:31:37;3.97;;;2.30;;
77726;SDS011;68312;53.502;10.030;2023-06-22T01:34:06;5.47;;;3.28;;
77726;SDS011;68312;53.502;10.030;2023-06-22T01:36:34;4.85;;;3.63;;
77726;SDS011;68312;53.502;10.030;2023-06-22T01:39:02;4.80;;;2.65;;
77726;SDS011;68312;53.502;10.030;2023-06-22T01:41:37;6.18;;;3.15;;
77726;SDS011;68312;53.502;10.030;2023-06-22T01:44:05;5.20;;;2.95;;
77726;SDS011;68312;53.502;10.030;2023-06-22T01:46:36;4.53;;;2.60;;
77726;SDS011;68312;53.502;10.030;2023-06-22T01:49:05;4.60;;;2.53;;
77726;SDS011;68312;53.502;10.030;2023-06-22T01:51:31;8.57;;;3.92;;
77726;SDS011;68312;53.502;10.030;2023-06-22T01:53:57;6.05;;;4.05;;
77726;SDS011;68312;53.502;10.030;2023-06-22T01:56:23;5.82;;;3.45;;
77726;SDS011;68312;53.502;10.030;2023-06-22T01:59:05;6.40;;;4.03;;
77726;SDS011;68312;53.502;10.030;2023-06-22T02:01:57;5.25;;;3.22;;
77726;SDS011;68312;53.502;10.030;2023-06-22T02:04:39;6.13;;;3.58;;
77726;SDS011;68312;53.502;10.030;2023-06-22T02:07:23;6.38;;;3.63;;
77726;SDS011;68312;53.502;10.030;2023-06-22T02:10:02;5.32;;;3.35;;
77726;SDS011;68312;53.502;10.030;2023-06-22T02:12:32;8.95;;;3.70;;
77726;SDS011;68312;53.502;10.030;2023-06-22T02:15:01;5.32;;;3.47;;
77726;SDS011;68312;53.502;10.030;2023-06-22T02:17:27;6.40;;;3.72;;
77726;SDS011;68312;53.502;10.030;2023-06-22T02:19:54;10.57;;;4.20;;
77726;SDS011;68312;53.502;10.030;2023-06-22T02:22:19;7.25;;;4.22;;
77726;SDS011;68312;53.502;10.030;2023-06-22T02:24:45;6.03;;;3.58;;
77726;SDS011;68312;53.502;10.030;2023-06-22T02:27:10;6.78;;;3.95;;
77726;SDS011;68312;53.502;10.030;2023-06-22T02:29:36;6.30;;;3.95;;
77726;SDS011;68312;53.502;10.030;2023-06-22T02:32:02;6.32;;;3.70;;
77726;SDS011;68312;53.502;10.030;2023-06-22T02:34:28;8.60;;;4.32;;
77726;SDS011;68312;53.502;10.030;2023-06-22T02:36:53;5.43;;;3.50;;
77726;SDS011;68312;53.502;10.030;2023-06-22T02:41:46;8.05;;;4.13;;
77726;SDS011;68312;53.502;10.030;2023-06-22T02:44:12;9.23;;;4.35;;
77726;SDS011;68312;53.502;10.030;2023-06-22T02:46:37;6.20;;;3.85;;
77726;SDS011;68312;53.502;10.030;2023-06-22T02:49:03;5.85;;;3.65;;
77726;SDS011;68312;53.502;10.030;2023-06-22T02:51:28;9.05;;;4.25;;
77726;SDS011;68312;53.502;10.030;2023-06-22T02:53:58;6.47;;;3.72;;
77726;SDS011;68312;53.502;10.030;2023-06-22T02:56:23;6.22;;;3.53;;
77726;SDS011;68312;53.502;10.030;2023-06-22T02:58:49;8.35;;;4.25;;
77726;SDS011;68312;53.502;10.030;2023-06-22T03:01:14;6.65;;;3.80;;
77726;SDS011;68312;53.502;10.030;2023-06-22T03:03:41;7.05;;;4.05;;
77726;SDS011;68312;53.502;10.030;2023-06-22T03:06:06;6.82;;;4.03;;
77726;SDS011;68312;53.502;10.030;2023-06-22T03:08:32;8.00;;;4.90;;
77726;SDS011;68312;53.502;10.030;2023-06-22T03:11:00;6.20;;;3.47;;
77726;SDS011;68312;53.502;10.030;2023-06-22T03:13:26;5.93;;;3.88;;
77726;SDS011;68312;53.502;10.030;2023-06-22T03:15:52;8.60;;;4.50;;
77726;SDS011;68312;53.502;10.030;2023-06-22T03:18:17;6.95;;;4.20;;
77726;SDS011;68312;53.502;10.030;2023-06-22T03:20:46;6.38;;;4.18;;
77726;SDS011;68312;53.502;10.030;2023-06-22T03:23:11;8.23;;;4.13;;
77726;SDS011;68312;53.502;10.030;2023-06-22T03:25:37;5.40;;;3.50;;
77726;SDS011;68312;53.502;10.030;2023-06-22T03:28:02;6.47;;;4.30;;
77726;SDS011;68312;53.502;10.030;2023-06-22T03:30:28;7.35;;;3.47;;
77726;SDS011;68312;53.502;10.030;2023-06-22T03:32:53;7.05;;;4.38;;
77726;SDS011;68312;53.502;10.030;2023-06-22T03:35:19;9.95;;;3.72;;
77726;SDS011;68312;53.502;10.030;2023-06-22T03:37:44;10.80;;;4.90;;
77726;SDS011;68312;53.502;10.030;2023-06-22T03:40:10;8.68;;;5.15;;
77726;SDS011;68312;53.502;10.030;2023-06-22T03:42:36;12.73;;;5.35;;
77726;SDS011;68312;53.502;10.030;2023-06-22T03:45:02;11.43;;;5.22;;
77726;SDS011;68312;53.502;10.030;2023-06-22T03:47:29;9.52;;;5.40;;
77726;SDS011;68312;53.502;10.030;2023-06-22T03:49:55;11.10;;;5.88;;
77726;SDS011;68312;53.502;10.030;2023-06-22T03:52:21;10.27;;;4.72;;
77726;SDS011;68312;53.502;10.030;2023-06-22T03:54:47;10.77;;;4.82;;
77726;SDS011;68312;53.502;10.030;2023-06-22T03:57:13;9.65;;;5.15;;
77726;SDS011;68312;53.502;10.030;2023-06-22T03:59:38;7.28;;;4.93;;
77726;SDS011;68312;53.502;10.030;2023-06-22T04:02:04;9.05;;;5.47;;
77726;SDS011;68312;53.502;10.030;2023-06-22T04:04:30;6.63;;;4.18;;
77726;SDS011;68312;53.502;10.030;2023-06-22T04:06:55;8.93;;;4.63;;
77726;SDS011;68312;53.502;10.030;2023-06-22T04:09:20;6.72;;;4.05;;
77726;SDS011;68312;53.502;10.030;2023-06-22T04:11:46;8.98;;;4.80;;
77726;SDS011;68312;53.502;10.030;2023-06-22T04:14:12;6.38;;;4.72;;
77726;SDS011;68312;53.502;10.030;2023-06-22T04:16:37;9.00;;;5.03;;
77726;SDS011;68312;53.502;10.030;2023-06-22T04:19:03;10.25;;;4.95;;
77726;SDS011;68312;53.502;10.030;2023-06-22T04:21:28;9.38;;;4.93;;
77726;SDS011;68312;53.502;10.030;2023-06-22T04:23:54;7.60;;;4.22;;
77726;SDS011;68312;53.502;10.030;2023-06-22T04:26:19;7.70;;;4.30;;
77726;SDS011;68312;53.502;10.030;2023-06-22T04:28:45;8.30;;;4.60;;
77726;SDS011;68312;53.502;10.030;2023-06-22T04:31:10;7.60;;;4.50;;
77726;SDS011;68312;53.502;10.030;2023-06-22T04:33:36;9.25;;;5.30;;
77726;SDS011;68312;53.502;10.030;2023-06-22T04:36:02;7.93;;;4.75;;
77726;SDS011;68312;53.502;10.030;2023-06-22T04:38:28;9.20;;;5.18;;
77726;SDS011;68312;53.502;10.030;2023-06-22T04:40:53;7.70;;;4.30;;
77726;SDS011;68312;53.502;10.030;2023-06-22T04:43:19;10.07;;;5.60;;
77726;SDS011;68312;53.502;10.030;2023-06-22T04:45:45;8.63;;;4.15;;
77726;SDS011;68312;53.502;10.030;2023-06-22T04:48:10;8.75;;;4.93;;
77726;SDS011;68312;53.502;10.030;2023-06-22T04:50:36;7.80;;;4.32;;
77726;SDS011;68312;53.502;10.030;2023-06-22T04:53:03;8.90;;;5.28;;
77726;SDS011;68312;53.502;10.030;2023-06-22T04:55:28;10.27;;;5.28;;
77726;SDS011;68312;53.502;10.030;2023-06-22T04:57:54;8.63;;;4.70;;
77726;SDS011;68312;53.502;10.030;2023-06-22T05:00:20;13.73;;;5.97;;
77726;SDS011;68312;53.502;10.030;2023-06-22T05:02:46;9.20;;;5.50;;
77726;SDS011;68312;53.502;10.030;2023-06-22T05:05:12;8.15;;;4.90;;
77726;SDS011;68312;53.502;10.030;2023-06-22T05:07:49;10.52;;;5.60;;
77726;SDS011;68312;53.502;10.030;2023-06-22T05:10:16;10.80;;;4.10;;
77726;SDS011;68312;53.502;10.030;2023-06-22T05:12:42;7.97;;;4.22;;
77726;SDS011;68312;53.502;10.030;2023-06-22T05:15:08;9.50;;;4.70;;
77726;SDS011;68312;53.502;10.030;2023-06-22T05:17:35;8.82;;;3.88;;
77726;SDS011;68312;53.502;10.030;2023-06-22T05:20:02;12.07;;;4.78;;
77726;SDS011;68312;53.502;10.030;2023-06-22T05:22:28;12.15;;;5.13;;
77726;SDS011;68312;53.502;10.030;2023-06-22T05:24:55;14.15;;;5.70;;
77726;SDS011;68312;53.502;10.030;2023-06-22T05:27:20;18.45;;;6.00;;
77726;SDS011;68312;53.502;10.030;2023-06-22T05:29:46;9.90;;;4.95;;
77726;SDS011;68312;53.502;10.030;2023-06-22T05:32:11;12.77;;;4.90;;
77726;SDS011;68312;53.502;10.030;2023-06-22T05:34:37;12.93;;;5.03;;
77726;SDS011;68312;53.502;10.030;2023-06-22T05:37:03;7.38;;;4.10;;
77726;SDS011;68312;53.502;10.030;2023-06-22T05:39:29;9.43;;;5.53;;
77726;SDS011;68312;53.502;10.030;2023-06-22T05:41:55;9.35;;;4.47;;
77726;SDS011;68312;53.502;10.030;2023-06-22T05:44:20;8.05;;;4.07;;
77726;SDS011;68312;53.502;10.030;2023-06-22T05:46:46;11.23;;;4.65;;
77726;SDS011;68312;53.502;10.030;2023-06-22T05:49:12;6.55;;;3.78;;
77726;SDS011;68312;53.502;10.030;2023-06-22T05:51:39;11.32;;;4.20;;
77726;SDS011;68312;53.502;10.030;2023-06-22T05:54:05;8.35;;;3.65;;
77726;SDS011;68312;53.502;10.030;2023-06-22T05:56:31;6.55;;;3.47;;
77726;SDS011;68312;53.502;10.030;2023-06-22T05:58:56;9.05;;;3.97;;
77726;SDS011;68312;53.502;10.030;2023-06-22T06:01:22;9.15;;;3.10;;
77726;SDS011;68312;53.502;10.030;2023-06-22T06:03:47;7.50;;;3.40;;
77726;SDS011;68312;53.502;10.030;2023-06-22T06:06:13;8.55;;;3.85;;
77726;SDS011;68312;53.502;10.030;2023-06-22T06:08:38;7.45;;;3.38;;
77726;SDS011;68312;53.502;10.030;2023-06-22T06:11:04;9.57;;;3.50;;
77726;SDS011;68312;53.502;10.030;2023-06-22T06:13:30;6.65;;;3.20;;
77726;SDS011;68312;53.502;10.030;2023-06-22T06:15:56;8.20;;;3.20;;
77726;SDS011;68312;53.502;10.030;2023-06-22T06:18:21;7.38;;;3.08;;
77726;SDS011;68312;53.502;10.030;2023-06-22T06:20:47;8.25;;;3.60;;
77726;SDS011;68312;53.502;10.030;2023-06-22T06:23:12;6.10;;;3.00;;
77726;SDS011;68312;53.502;10.030;2023-06-22T06:25:38;4.00;;;2.50;;
77726;SDS011;68312;53.502;10.030;2023-06-22T06:28:04;7.00;;;3.20;;
77726;SDS011;68312;53.502;10.030;2023-06-22T06:30:30;6.40;;;3.47;;
77726;SDS011;68312;53.502;10.030;2023-06-22T06:32:56;5.65;;;3.53;;
77726;SDS011;68312;53.502;10.030;2023-06-22T06:35:21;5.57;;;3.05;;
77726;SDS011;68312;53.502;10.030;2023-06-22T06:37:48;10.48;;;3.58;;
77726;SDS011;68312;53.502;10.030;2023-06-22T06:40:16;4.70;;;2.92;;
77726;SDS011;68312;53.502;10.030;2023-06-22T06:42:44;4.40;;;2.70;;
77726;SDS011;68312;53.502;10.030;2023-06-22T06:45:16;4.78;;;3.20;;
77726;SDS011;68312;53.502;10.030;2023-06-22T06:47:46;5.97;;;3.03;;
77726;SDS011;68312;53.502;10.030;2023-06-22T06:50:15;6.70;;;2.75;;
77726;SDS011;68312;53.502;10.030;2023-06-22T06:52:41;5.70;;;3.25;;
77726;SDS011;68312;53.502;10.030;2023-06-22T06:55:07;6.03;;;3.22;;
77726;SDS011;68312;53.502;10.030;2023-06-22T06:57:34;5.10;;;2.63;;
77726;SDS011;68312;53.502;10.030;2023-06-22T07:00:00;6.65;;;2.70;;
77726;SDS011;68312;53.502;10.030;2023-06-22T07:02:26;3.97;;;2.60;;
77726;SDS011;68312;53.502;10.030;2023-06-22T07:04:52;6.15;;;3.00;;
77726;SDS011;68312;53.502;10.030;2023-06-22T07:07:17;6.47;;;2.78;;
77726;SDS011;68312;53.502;10.030;2023-06-22T07:09:42;5.28;;;2.70;;
77726;SDS011;68312;53.502;10.030;2023-06-22T07:12:08;6.30;;;3.13;;
77726;SDS011;68312;53.502;10.030;2023-06-22T07:14:34;5.28;;;2.72;;
77726;SDS011;68312;53.502;10.030;2023-06-22T07:16:59;6.03;;;3.35;;
77726;SDS011;68312;53.502;10.030;2023-06-22T07:19:25;4.32;;;2.60;;
77726;SDS011;68312;53.502;10.030;2023-06-22T07:21:53;4.30;;;2.45;;
77726;SDS011;68312;53.502;10.030;2023-06-22T07:24:20;4.38;;;2.55;;
77726;SDS011;68312;53.502;10.030;2023-06-22T07:26:47;6.07;;;2.92;;
77726;SDS011;68312;53.502;10.030;2023-06-22T07:29:14;4.45;;;2.65;;
77726;SDS011;68312;53.502;10.030;2023-06-22T07:31:39;4.82;;;2.58;;
77726;SDS011;68312;53.502;10.030;2023-06-22T07:34:05;6.75;;;2.85;;
77726;SDS011;68312;53.502;10.030;2023-06-22T07:36:30;4.70;;;2.55;;
77726;SDS011;68312;53.502;10.030;2023-06-22T07:38:56;4.43;;;2.13;;
77726;SDS011;68312;53.502;10.030;2023-06-22T07:41:21;4.22;;;2.33;;
77726;SDS011;68312;53.502;10.030;2023-06-22T07:43:50;4.53;;;2.50;;
77726;SDS011;68312;53.502;10.030;2023-06-22T07:46:15;5.43;;;2.90;;
77726;SDS011;68312;53.502;10.030;2023-06-22T07:48:41;6.15;;;2.55;;
77726;SDS011;68312;53.502;10.030;2023-06-22T07:51:07;5.22;;;2.28;;
77726;SDS011;68312;53.502;10.030;2023-06-22T07:53:33;4.68;;;2.53;;
77726;SDS011;68312;53.502;10.030;2023-06-22T07:55:58;5.90;;;2.70;;
77726;SDS011;68312;53.502;10.030;2023-06-22T07:58:24;5.18;;;2.55;;
77726;SDS011;68312;53.502;10.030;2023-06-22T08:00:49;5.43;;;2.20;;
77726;SDS011;68312;53.502;10.030;2023-06-22T08:03:15;4.00;;;1.85;;
77726;SDS011;68312;53.502;10.030;2023-06-22T08:05:41;4.28;;;2.05;;
77726;SDS011;68312;53.502;10.030;2023-06-22T08:08:06;4.72;;;2.58;;
77726;SDS011;68312;53.502;10.030;2023-06-22T08:10:32;4.55;;;2.20;;
77726;SDS011;68312;53.502;10.030;2023-06-22T08:13:00;6.13;;;2.10;;
77726;SDS011;68312;53.502;10.030;2023-06-22T08:15:26;5.75;;;2.58;;
77726;SDS011;68312;53.502;10.030;2023-06-22T08:17:51;6.60;;;2.40;;
77726;SDS011;68312;53.502;10.030;2023-06-22T08:20:17;7.93;;;2.50;;
77726;SDS011;68312;53.502;10.030;2023-06-22T08:22:42;5.55;;;2.63;;
77726;SDS011;68312;53.502;10.030;2023-06-22T08:25:08;3.95;;;2.17;;
77726;SDS011;68312;53.502;10.030;2023-06-22T08:27:36;4.47;;;2.40;;
77726;SDS011;68312;53.502;10.030;2023-06-22T08:30:02;6.97;;;2.00;;
77726;SDS011;68312;53.502;10.030;2023-06-22T08:32:29;5.50;;;2.55;;
77726;SDS011;68312;53.502;10.030;2023-06-22T08:34:55;7.13;;;1.90;;
77726;SDS011;68312;53.502;10.030;2023-06-22T08:37:22;3.15;;;1.90;;
77726;SDS011;68312;53.502;10.030;2023-06-22T08:39:49;4.22;;;2.35;;
77726;SDS011;68312;53.502;10.030;2023-06-22T08:42:14;4.72;;;2.13;;
77726;SDS011;68312;53.502;10.030;2023-06-22T08:44:40;6.05;;;2.08;;
77726;SDS011;68312;53.502;10.030;2023-06-22T08:47:05;3.17;;;2.05;;
77726;SDS011;68312;53.502;10.030;2023-06-22T08:49:31;4.15;;;2.30;;
77726;SDS011;68312;53.502;10.030;2023-06-22T08:51:56;3.67;;;1.73;;
77726;SDS011;68312;53.502;10.030;2023-06-22T08:54:22;5.10;;;2.03;;
77726;SDS011;68312;53.502;10.030;2023-06-22T08:56:47;3.08;;;1.98;;
77726;SDS011;68312;53.502;10.030;2023-06-22T08:59:13;4.25;;;1.90;;
77726;SDS011;68312;53.502;10.030;2023-06-22T09:01:39;3.97;;;1.77;;
77726;SDS011;68312;53.502;10.030;2023-06-22T09:04:04;3.53;;;1.88;;
77726;SDS011;68312;53.502;10.030;2023-06-22T09:06:32;3.72;;;2.00;;
77726;SDS011;68312;53.502;10.030;2023-06-22T09:08:58;4.22;;;1.90;;
77726;SDS011;68312;53.502;10.030;2023-06-22T09:11:23;4.13;;;1.73;;
77726;SDS011;68312;53.502;10.030;2023-06-22T09:13:49;3.42;;;1.80;;
77726;SDS011;68312;53.502;10.030;2023-06-22T09:16:14;4.00;;;1.75;;
77726;SDS011;68312;53.502;10.030;2023-06-22T09:18:40;3.42;;;2.03;;
77726;SDS011;68312;53.502;10.030;2023-06-22T09:21:05;5.85;;;2.20;;
77726;SDS011;68312;53.502;10.030;2023-06-22T09:23:31;5.28;;;1.92;;
77726;SDS011;68312;53.502;10.030;2023-06-22T09:25:56;3.95;;;2.40;;
77726;SDS011;68312;53.502;10.030;2023-06-22T09:28:21;5.78;;;2.70;;
77726;SDS011;68312;53.502;10.030;2023-06-22T09:30:47;7.15;;;2.10;;
77726;SDS011;68312;53.502;10.030;2023-06-22T09:33:12;3.85;;;1.90;;
77726;SDS011;68312;53.502;10.030;2023-06-22T09:35:41;4.60;;;1.92;;
77726;SDS011;68312;53.502;10.030;2023-06-22T09:38:06;5.10;;;2.08;;
77726;SDS011;68312;53.502;10.030;2023-06-22T09:40:32;4.78;;;1.77;;
77726;SDS011;68312;53.502;10.030;2023-06-22T09:42:57;5.00;;;2.05;;
77726;SDS011;68312;53.502;10.030;2023-06-22T09:45:23;3.70;;;2.10;;
77726;SDS011;68312;53.502;10.030;2023-06-22T09:47:48;5.50;;;1.75;;
77726;SDS011;68312;53.502;10.030;2023-06-22T09:50:14;3.10;;;2.03;;
77726;SDS011;68312;53.502;10.030;2023-06-22T09:52:39;4.82;;;2.10;;
77726;SDS011;68312;53.502;10.030;2023-06-22T09:55:05;2.90;;;1.80;;
77726;SDS011;68312;53.502;10.030;2023-06-22T09:57:31;3.53;;;1.90;;
77726;SDS011;68312;53.502;10.030;2023-06-22T09:59:56;3.28;;;1.70;;
77726;SDS011;68312;53.502;10.030;2023-06-22T10:02:22;4.53;;;1.60;;
77726;SDS011;68312;53.502;10.030;2023-06-22T10:04:48;4.05;;;1.77;;
77726;SDS011;68312;53.502;10.030;2023-06-22T10:07:13;2.10;;;1.33;;
77726;SDS011;68312;53.502;10.030;2023-06-22T10:09:39;3.38;;;1.65;;
77726;SDS011;68312;53.502;10.030;2023-06-22T10:12:04;3.85;;;1.90;;
77726;SDS011;68312;53.502;10.030;2023-06-22T10:14:30;2.90;;;1.70;;
77726;SDS011;68312;53.502;10.030;2023-06-22T10:16:56;4.20;;;2.15;;
77726;SDS011;68312;53.502;10.030;2023-06-22T10:19:21;4.60;;;2.03;;
77726;SDS011;68312;53.502;10.030;2023-06-22T10:21:46;4.25;;;1.77;;
77726;SDS011;68312;53.502;10.030;2023-06-22T10:24:12;3.42;;;1.83;;
77726;SDS011;68312;53.502;10.030;2023-06-22T10:26:38;4.07;;;2.05;;
77726;SDS011;68312;53.502;10.030;2023-06-22T10:29:03;4.60;;;1.75;;
77726;SDS011;68312;53.502;10.030;2023-06-22T10:31:29;2.83;;;1.88;;
77726;SDS011;68312;53.502;10.030;2023-06-22T10:33:54;3.15;;;1.70;;
77726;SDS011;68312;53.502;10.030;2023-06-22T10:36:21;6.03;;;2.30;;
77726;SDS011;68312;53.502;10.030;2023-06-22T10:38:48;4.50;;;2.10;;
77726;SDS011;68312;53.502;10.030;2023-06-22T10:41:17;3.53;;;2.05;;
77726;SDS011;68312;53.502;10.030;2023-06-22T10:43:42;3.15;;;2.03;;
77726;SDS011;68312;53.502;10.030;2023-06-22T10:46:08;3.50;;;2.10;;
77726;SDS011;68312;53.502;10.030;2023-06-22T10:48:34;4.68;;;2.28;;
77726;SDS011;68312;53.502;10.030;2023-06-22T10:51:00;4.05;;;2.13;;
77726;SDS011;68312;53.502;10.030;2023-06-22T10:53:25;3.72;;;2.33;;
77726;SDS011;68312;53.502;10.030;2023-06-22T10:55:50;5.10;;;2.17;;
77726;SDS011;68312;53.502;10.030;2023-06-22T10:58:18;4.22;;;2.40;;
77726;SDS011;68312;53.502;10.030;2023-06-22T11:00:46;3.53;;;2.45;;
77726;SDS011;68312;53.502;10.030;2023-06-22T11:03:12;3.00;;;2.20;;
77726;SDS011;68312;53.502;10.030;2023-06-22T11:05:37;5.32;;;2.63;;
77726;SDS011;68312;53.502;10.030;2023-06-22T11:08:03;3.45;;;2.25;;
77726;SDS011;68312;53.502;10.030;2023-06-22T11:10:29;4.15;;;2.67;;
77726;SDS011;68312;53.502;10.030;2023-06-22T11:12:54;3.35;;;2.33;;
77726;SDS011;68312;53.502;10.030;2023-06-22T11:15:19;4.13;;;2.20;;
77726;SDS011;68312;53.502;10.030;2023-06-22T11:17:45;3.22;;;2.25;;
77726;SDS011;68312;53.502;10.030;2023-06-22T11:20:11;3.72;;;2.40;;
77726;SDS011;68312;53.502;10.030;2023-06-22T11:22:40;5.22;;;2.50;;
77726;SDS011;68312;53.502;10.030;2023-06-22T11:25:06;3.35;;;2.30;;
77726;SDS011;68312;53.502;10.030;2023-06-22T11:27:33;3.35;;;2.47;;
77726;SDS011;68312;53.502;10.030;2023-06-22T11:29:59;3.75;;;2.60;;
77726;SDS011;68312;53.502;10.030;2023-06-22T11:32:24;4.88;;;2.55;;
77726;SDS011;68312;53.502;10.030;2023-06-22T11:34:50;4.03;;;2.53;;
77726;SDS011;68312;53.502;10.030;2023-06-22T11:37:15;4.50;;;2.85;;
77726;SDS011;68312;53.502;10.030;2023-06-22T11:39:41;3.90;;;2.80;;
77726;SDS011;68312;53.502;10.030;2023-06-22T11:42:07;4.22;;;2.40;;
77726;SDS011;68312;53.502;10.030;2023-06-22T11:44:34;4.80;;;2.67;;
77726;SDS011;68312;53.502;10.030;2023-06-22T11:46:59;5.38;;;2.80;;
77726;SDS011;68312;53.502;10.030;2023-06-22T11:49:25;3.97;;;2.78;;
77726;SDS011;68312;53.502;10.030;2023-06-22T11:51:50;3.83;;;2.72;;
77726;SDS011;68312;53.502;10.030;2023-06-22T11:54:16;5.35;;;2.70;;
77726;SDS011;68312;53.502;10.030;2023-06-22T11:56:41;5.45;;;2.95;;
77726;SDS011;68312;53.502;10.030;2023-06-22T11:59:06;5.40;;;3.33;;
77726;SDS011;68312;53.502;10.030;2023-06-22T12:01:32;3.80;;;2.78;;
77726;SDS011;68312;53.502;10.030;2023-06-22T12:03:57;4.57;;;2.63;;
77726;SDS011;68312;53.502;10.030;2023-06-22T12:06:26;5.47;;;3.17;;
77726;SDS011;68312;53.502;10.030;2023-06-22T12:08:52;4.97;;;3.10;;
77726;SDS011;68312;53.502;10.030;2023-06-22T12:11:18;5.45;;;2.90;;
77726;SDS011;68312;53.502;10.030;2023-06-22T12:13:43;4.10;;;2.40;;
77726;SDS011;68312;53.502;10.030;2023-06-22T12:16:09;3.95;;;2.80;;
77726;SDS011;68312;53.502;10.030;2023-06-22T12:18:34;4.47;;;2.78;;
77726;SDS011;68312;53.502;10.030;2023-06-22T12:21:00;4.80;;;3.13;;
77726;SDS011;68312;53.502;10.030;2023-06-22T12:23:25;4.05;;;2.75;;
77726;SDS011;68312;53.502;10.030;2023-06-22T12:25:51;5.10;;;3.22;;
77726;SDS011;68312;53.502;10.030;2023-06-22T12:28:16;6.03;;;3.22;;
77726;SDS011;68312;53.502;10.030;2023-06-22T12:30:42;9.00;;;3.08;;
77726;SDS011;68312;53.502;10.030;2023-06-22T12:33:07;6.53;;;3.42;;
77726;SDS011;68312;53.502;10.030;2023-06-22T12:35:33;5.80;;;3.22;;
77726;SDS011;68312;53.502;10.030;2023-06-22T12:37:59;5.88;;;3.15;;
77726;SDS011;68312;53.502;10.030;2023-06-22T12:40:24;5.22;;;3.28;;
77726;SDS011;68312;53.502;10.030;2023-06-22T12:42:50;5.10;;;3.10;;
77726;SDS011;68312;53.502;10.030;2023-06-22T12:45:16;4.00;;;3.05;;
77726;SDS011;68312;53.502;10.030;2023-06-22T12:47:41;7.13;;;3.80;;
77726;SDS011;68312;53.502;10.030;2023-06-22T12:50:07;5.40;;;2.85;;
77726;SDS011;68312;53.502;10.030;2023-06-22T12:52:36;4.88;;;3.60;;
77726;SDS011;68312;53.502;10.030;2023-06-22T12:55:02;5.22;;;2.90;;
77726;SDS011;68312;53.502;10.030;2023-06-22T12:57:28;6.88;;;3.75;;
77726;SDS011;68312;53.502;10.030;2023-06-22T12:59:53;7.82;;;3.17;;
77726;SDS011;68312;53.502;10.030;2023-06-22T13:02:18;4.68;;;3.22;;
77726;SDS011;68312;53.502;10.030;2023-06-22T13:04:44;6.43;;;3.28;;
77726;SDS011;68312;53.502;10.030;2023-06-22T13:07:09;7.63;;;3.42;;
77726;SDS011;68312;53.502;10.030;2023-06-22T13:09:35;5.45;;;3.70;;
77726;SDS011;68312;53.502;10.030;2023-06-22T13:12:01;5.00;;;3.42;;
77726;SDS011;68312;53.502;10.030;2023-06-22T13:14:27;5.40;;;3.50;;
77726;SDS011;68312;53.502;10.030;2023-06-22T13:16:53;4.97;;;3.38;;
77726;SDS011;68312;53.502;10.030;2023-06-22T13:19:18;4.25;;;3.05;;
77726;SDS011;68312;53.502;10.030;2023-06-22T13:21:44;3.95;;;3.10;;
77726;SDS011;68312;53.502;10.030;2023-06-22T13:24:09;6.13;;;3.30;;
77726;SDS011;68312;53.502;10.030;2023-06-22T13:26:35;5.82;;;3.65;;
77726;SDS011;68312;53.502;10.030;2023-06-22T13:29:00;6.53;;;3.90;;
77726;SDS011;68312;53.502;10.030;2023-06-22T13:31:28;5.20;;;3.35;;
77726;SDS011;68312;53.502;10.030;2023-06-22T13:33:54;5.10;;;3.45;;
77726;SDS011;68312;53.502;10.030;2023-06-22T13:36:19;6.38;;;3.80;;
77726;SDS011;68312;53.502;10.030;2023-06-22T13:38:45;6.65;;;4.05;;
77726;SDS011;68312;53.502;10.030;2023-06-22T13:41:10;4.78;;;3.80;;
77726;SDS011;68312;53.502;10.030;2023-06-22T13:43:36;4.97;;;3.80;;
77726;SDS011;68312;53.502;10.030;2023-06-22T13:46:01;6.18;;;3.50;;
77726;SDS011;68312;53.502;10.030;2023-06-22T13:48:27;5.28;;;3.50;;
77726;SDS011;68312;53.502;10.030;2023-06-22T13:50:52;6.65;;;3.50;;
77726;SDS011;68312;53.502;10.030;2023-06-22T13:53:18;5.68;;;3.72;;
77726;SDS011;68312;53.502;10.030;2023-06-22T13:55:44;6.22;;;3.72;;
77726;SDS011;68312;53.502;10.030;2023-06-22T13:58:09;6.60;;;3.38;;
77726;SDS011;68312;53.502;10.030;2023-06-22T14:00:34;5.88;;;3.75;;
77726;SDS011;68312;53.502;10.030;2023-06-22T14:03:00;7.40;;;3.70;;
77726;SDS011;68312;53.502;10.030;2023-06-22T14:05:25;6.78;;;3.25;;
77726;SDS011;68312;53.502;10.030;2023-06-22T14:07:51;4.97;;;3.22;;
77726;SDS011;68312;53.502;10.030;2023-06-22T14:10:16;5.03;;;3.30;;
77726;SDS011;68312;53.502;10.030;2023-06-22T14:12:42;5.22;;;3.20;;
77726;SDS011;68312;53.502;10.030;2023-06-22T14:15:07;5.88;;;3.72;;
77726;SDS011;68312;53.502;10.030;2023-06-22T14:17:33;4.85;;;3.58;;
77726;SDS011;68312;53.502;10.030;2023-06-22T14:19:59;6.40;;;3.45;;
77726;SDS011;68312;53.502;10.030;2023-06-22T14:22:24;6.65;;;3.80;;
77726;SDS011;68312;53.502;10.030;2023-06-22T14:24:50;7.93;;;3.92;;
77726;SDS011;68312;53.502;10.030;2023-06-22T14:27:15;7.40;;;3.70;;
77726;SDS011;68312;53.502;10.030;2023-06-22T14:29:44;7.72;;;4.50;;
77726;SDS011;68312;53.502;10.030;2023-06-22T14:32:09;8.25;;;4.65;;
77726;SDS011;68312;53.502;10.030;2023-06-22T14:34:35;6.88;;;4.63;;